createdAt,value
2016-09-06T00:00:55.142Z,77.08
2016-09-06T00:01:28.894Z,76.95
2016-09-06T00:02:00.216Z,76.24
2016-09-06T00:02:22.173Z,76.06
2016-09-06T00:03:20.848Z,76.24
2016-09-06T00:03:51.965Z,75.96
2016-09-06T00:04:58.528Z,77.07
2016-09-06T00:05:25.034Z,76.94
2016-09-06T00:05:46.781Z,77.19
2016-09-06T00:06:18.065Z,77.06
2016-09-06T00:06:39.825Z,76.67
2016-09-06T00:07:06.356Z,76.65
2016-09-06T00:07:35.690Z,76.71
2016-09-06T00:10:17.082Z,76.29
2016-09-06T00:10:38.848Z,76.28
2016-09-06T00:11:00.606Z,76.22
2016-09-06T00:12:06.781Z,77.14
2016-09-06T00:12:28.650Z,77.17
2016-09-06T00:15:20.918Z,76.21
2016-09-06T00:15:47.569Z,76.02
2016-09-06T00:17:23.399Z,75.73
2016-09-06T00:17:45.184Z,75.79
2016-09-06T00:18:11.834Z,75.92
2016-09-06T00:22:09.134Z,78.91
2016-09-06T00:22:35.489Z,78.67
2016-09-06T00:23:24.865Z,78.03
2016-09-06T00:24:22.905Z,77.69
2016-09-06T00:25:23.700Z,76.71
2016-09-06T00:26:25.629Z,75.96
2016-09-06T00:27:24.186Z,76.28
2016-09-06T00:27:51.914Z,76.75
2016-09-06T00:30:11.524Z,77.41
2016-09-06T00:32:40.030Z,76.95
2016-09-06T00:34:37.956Z,78.03
2016-09-06T00:35:07.403Z,78.11
2016-09-06T00:37:19.409Z,78.35
2016-09-06T00:39:09.857Z,77.21
2016-09-06T00:39:41.143Z,77.09
2016-09-06T00:40:08.672Z,77.05
2016-09-06T00:41:58.647Z,78.77
2016-09-06T00:43:10.740Z,79.47
2016-09-06T00:45:13.633Z,79.16
2016-09-06T00:46:20.790Z,78.80
2016-09-06T00:48:22.880Z,78.68
2016-09-06T00:48:54.158Z,78.54
2016-09-06T00:49:25.276Z,78.11
2016-09-06T00:49:50.366Z,77.99
2016-09-06T00:50:19.907Z,77.48
2016-09-06T00:50:46.535Z,77.18
2016-09-06T00:51:13.969Z,77.33
2016-09-06T00:51:38.455Z,77.94
2016-09-06T00:52:05.905Z,78.17
2016-09-06T01:45:13.585Z,79.16
2016-09-06T04:07:15.031Z,81.05
2016-09-06T04:08:25.880Z,80.58
2016-09-06T04:08:57.320Z,81.04
2016-09-06T04:09:29.588Z,81.62
2016-09-06T04:11:30.008Z,82.62
2016-09-06T05:06:19.619Z,83.20
2016-09-06T05:06:41.424Z,83.27
2016-09-06T05:07:07.925Z,83.23
2016-09-06T05:07:29.687Z,83.19
2016-09-06T05:07:51.463Z,82.97
2016-09-06T05:08:13.223Z,82.61
2016-09-06T05:08:34.973Z,82.19
2016-09-06T05:09:06.248Z,81.91
2016-09-06T05:09:32.747Z,82.52
2016-09-06T05:09:54.494Z,82.65
2016-09-06T05:10:16.222Z,82.87
2016-09-06T05:10:42.725Z,82.70
2016-09-06T05:11:05.489Z,82.51
2016-09-06T05:11:27.400Z,82.54
2016-09-06T05:11:50.141Z,82.27
2016-09-06T05:12:43.192Z,81.70
2016-09-06T05:13:04.929Z,81.41
2016-09-06T05:13:26.661Z,81.52
2016-09-06T05:13:48.401Z,81.41
2016-09-06T05:14:10.203Z,81.12
2016-09-06T05:14:31.947Z,81.16
2016-09-06T05:14:53.919Z,81.12
2016-09-06T05:15:15.761Z,81.12
2016-09-06T05:15:37.483Z,81.14
2016-09-06T05:15:59.285Z,80.98
2016-09-06T05:16:21.079Z,80.94
2016-09-06T05:16:42.811Z,80.78
2016-09-06T05:17:04.536Z,80.86
2016-09-06T05:17:26.269Z,80.81
2016-09-06T05:17:47.996Z,80.64
2016-09-06T05:18:09.729Z,80.45
2016-09-06T05:18:31.464Z,80.49
2016-09-06T05:18:53.301Z,80.74
2016-09-06T05:19:15.028Z,80.87
2016-09-06T05:19:36.760Z,80.92
2016-09-06T05:19:58.481Z,81.07
2016-09-06T05:20:20.216Z,81.32
2016-09-06T05:20:41.994Z,81.43
2016-09-06T05:21:03.761Z,81.50
2016-09-06T05:21:25.486Z,81.67
2016-09-06T05:21:47.221Z,81.64
2016-09-06T05:22:08.945Z,81.63
2016-09-06T05:22:30.686Z,81.52
2016-09-06T05:22:52.475Z,81.19
2016-09-06T05:23:18.981Z,80.97
2016-09-06T05:23:40.702Z,80.72
2016-09-06T05:24:02.440Z,80.72
2016-09-06T05:24:25.176Z,80.95
2016-09-06T05:24:46.903Z,81.44
2016-09-06T05:25:08.625Z,82.01
2016-09-06T05:25:30.352Z,82.51
2016-09-06T05:25:52.091Z,82.63
2016-09-06T05:26:13.828Z,82.81
2016-09-06T05:26:35.562Z,82.70
2016-09-06T05:26:57.307Z,82.48
2016-09-06T05:27:19.054Z,82.51
2016-09-06T05:27:40.779Z,82.16
2016-09-06T05:28:02.613Z,81.97
2016-09-06T05:28:24.459Z,81.68
2016-09-06T05:28:46.187Z,81.72
2016-09-06T05:29:07.924Z,81.77
2016-09-06T05:29:29.656Z,81.64
2016-09-06T05:29:52.372Z,81.45
2016-09-06T05:30:14.104Z,81.17
2016-09-06T05:30:35.982Z,80.85
2016-09-06T05:30:57.608Z,80.59
2016-09-06T05:31:19.332Z,80.33
2016-09-06T05:31:41.066Z,80.18
2016-09-06T05:32:02.782Z,79.96
2016-09-06T05:32:24.507Z,80.06
2016-09-06T05:32:51.010Z,80.15
2016-09-06T05:33:17.528Z,80.29
2016-09-06T05:33:39.258Z,80.04
2016-09-06T05:34:00.981Z,79.85
2016-09-06T05:34:27.499Z,80.17
2016-09-06T05:34:51.927Z,80.27
2016-09-06T05:35:16.238Z,80.28
2016-09-06T05:35:37.975Z,80.14
2016-09-06T05:35:59.700Z,80.14
2016-09-06T05:36:21.428Z,79.87
2016-09-06T05:36:46.043Z,80.08
2016-09-06T05:37:36.903Z,81.68
2016-09-06T05:38:03.396Z,81.67
2016-09-06T05:38:25.133Z,81.85
2016-09-06T05:38:51.620Z,81.72
2016-09-06T05:39:13.348Z,81.41
2016-09-06T05:39:39.697Z,81.46
2016-09-06T05:40:01.422Z,81.53
2016-09-06T05:40:25.713Z,81.93
2016-09-06T05:40:47.445Z,82.01
2016-09-06T05:41:09.255Z,81.93
2016-09-06T05:41:31.982Z,81.74
2016-09-06T05:41:56.474Z,81.72
2016-09-06T05:42:19.207Z,82.03
2016-09-06T05:42:46.042Z,82.13
2016-09-06T05:43:08.186Z,81.83
2016-09-06T05:43:30.033Z,81.42
2016-09-06T05:44:22.933Z,81.48
2016-09-06T05:44:49.428Z,81.73
2016-09-06T05:45:11.155Z,81.42
2016-09-06T05:45:37.665Z,81.20
2016-09-06T05:45:59.393Z,80.83
2016-09-06T05:46:25.915Z,81.36
2016-09-06T05:46:48.641Z,81.45
2016-09-06T05:47:15.134Z,81.66
2016-09-06T05:47:36.862Z,81.65
2016-09-06T05:47:59.588Z,81.80
2016-09-06T05:48:21.307Z,81.70
2016-09-06T05:48:46.804Z,81.60
2016-09-06T05:49:11.096Z,81.90
2016-09-06T05:49:32.824Z,81.69
2016-09-06T05:49:54.562Z,81.53
2016-09-06T05:50:16.282Z,81.46
2016-09-06T05:50:38.016Z,81.36
2016-09-06T05:50:59.742Z,81.25
2016-09-06T05:51:21.489Z,81.33
2016-09-06T05:51:43.230Z,81.25
2016-09-06T05:52:04.969Z,81.60
2016-09-06T05:52:26.695Z,82.34
2016-09-06T05:52:48.420Z,82.25
2016-09-06T05:53:12.747Z,81.98
2016-09-06T05:53:34.618Z,82.01
2016-09-06T05:53:56.353Z,81.86
2016-09-06T05:54:18.074Z,81.99
2016-09-06T05:54:39.796Z,81.52
2016-09-06T05:55:01.525Z,81.31
2016-09-06T05:55:23.268Z,80.98
2016-09-06T05:55:44.986Z,81.40
2016-09-06T05:56:06.707Z,81.59
2016-09-06T05:56:28.439Z,81.67
2016-09-06T05:56:50.158Z,81.37
2016-09-06T05:57:11.883Z,80.72
2016-09-06T05:57:33.870Z,80.24
2016-09-06T05:57:55.591Z,80.03
2016-09-06T05:58:17.335Z,79.73
2016-09-06T05:58:39.047Z,79.50
2016-09-06T05:59:00.782Z,79.48
2016-09-06T05:59:22.510Z,79.22
2016-09-06T05:59:44.273Z,79.01
2016-09-06T06:00:05.994Z,79.24
2016-09-06T06:00:27.716Z,79.04
2016-09-06T06:00:49.451Z,78.96
2016-09-06T06:01:11.192Z,78.98
2016-09-06T06:01:32.916Z,79.09
2016-09-06T06:01:54.637Z,79.29
2016-09-06T06:02:16.382Z,79.06
2016-09-06T06:02:38.101Z,79.04
2016-09-06T06:02:59.831Z,79.23
2016-09-06T06:03:21.574Z,79.05
2016-09-06T06:03:43.297Z,78.99
2016-09-06T06:04:05.029Z,78.80
2016-09-06T06:04:26.753Z,78.93
2016-09-06T06:04:48.485Z,78.94
2016-09-06T06:05:10.206Z,78.95
2016-09-06T06:05:31.940Z,78.71
2016-09-06T06:05:53.662Z,78.75
2016-09-06T06:06:15.384Z,78.86
2016-09-06T06:06:37.124Z,78.89
2016-09-06T06:06:58.862Z,78.98
2016-09-06T06:07:20.593Z,79.01
2016-09-06T06:07:42.328Z,78.79
2016-09-06T06:08:04.078Z,78.71
2016-09-06T06:08:25.806Z,78.50
2016-09-06T06:08:47.534Z,78.67
2016-09-06T06:09:09.262Z,78.57
2016-09-06T06:09:30.983Z,78.54
2016-09-06T06:09:52.709Z,78.63
2016-09-06T06:10:14.427Z,79.01
2016-09-06T06:10:36.142Z,78.98
2016-09-06T06:10:57.869Z,78.96
2016-09-06T06:11:19.595Z,79.10
2016-09-06T06:11:41.323Z,79.29
2016-09-06T06:12:03.044Z,79.26
2016-09-06T06:12:24.766Z,79.23
2016-09-06T06:12:46.619Z,79.01
2016-09-06T06:13:08.349Z,78.85
2016-09-06T06:13:30.068Z,78.87
2016-09-06T06:13:51.803Z,78.81
2016-09-06T06:14:13.529Z,79.02
2016-09-06T06:14:35.249Z,78.94
2016-09-06T06:14:56.993Z,78.73
2016-09-06T06:15:18.711Z,79.04
2016-09-06T06:15:40.437Z,79.20
2016-09-06T06:16:02.168Z,79.10
2016-09-06T06:16:23.895Z,79.14
2016-09-06T06:16:45.638Z,79.30
2016-09-06T06:17:07.360Z,79.16
2016-09-06T06:17:29.092Z,78.85
2016-09-06T06:17:50.821Z,78.69
2016-09-06T06:18:12.552Z,78.61
2016-09-06T06:18:34.270Z,78.73
2016-09-06T06:18:56.001Z,78.59
2016-09-06T06:19:17.726Z,78.76
2016-09-06T06:19:39.451Z,78.61
2016-09-06T06:20:01.169Z,78.91
2016-09-06T06:20:22.897Z,79.04
2016-09-06T06:20:44.618Z,78.88
2016-09-06T06:21:06.350Z,78.54
2016-09-06T06:21:28.071Z,78.82
2016-09-06T06:21:49.800Z,78.99
2016-09-06T06:22:11.535Z,78.93
2016-09-06T06:22:33.262Z,79.02
2016-09-06T06:22:54.993Z,78.77
2016-09-06T06:23:19.400Z,78.21
2016-09-06T06:23:41.208Z,77.27
2016-09-06T06:24:02.897Z,75.67
2016-09-06T06:24:24.619Z,74.49
2016-09-06T06:24:46.341Z,73.27
2016-09-06T06:25:08.062Z,72.84
2016-09-06T06:25:29.790Z,72.80
2016-09-06T06:26:18.005Z,74.77
2016-09-06T06:26:39.720Z,75.68
2016-09-06T06:27:01.441Z,76.63
2016-09-06T06:27:23.237Z,77.01
2016-09-06T06:27:44.958Z,77.46
2016-09-06T06:28:06.683Z,78.05
2016-09-06T06:28:28.414Z,78.19
2016-09-06T06:28:50.132Z,78.45
2016-09-06T06:29:11.851Z,78.44
2016-09-06T06:29:33.566Z,78.39
2016-09-06T06:29:55.281Z,78.32
2016-09-06T06:30:17.003Z,78.39
2016-09-06T06:30:38.757Z,78.53
2016-09-06T06:31:00.471Z,78.39
2016-09-06T06:31:22.193Z,78.21
2016-09-06T06:31:43.918Z,78.55
2016-09-06T06:32:05.636Z,78.45
2016-09-06T06:32:27.356Z,78.38
2016-09-06T06:32:49.202Z,78.54
2016-09-06T06:33:10.840Z,78.91
2016-09-06T06:33:32.575Z,79.53
2016-09-06T06:33:54.292Z,79.87
2016-09-06T06:34:16.014Z,80.60
2016-09-06T06:34:37.736Z,80.37
2016-09-06T06:34:59.464Z,79.74
2016-09-06T06:35:21.195Z,79.50
2016-09-06T06:35:42.913Z,79.21
2016-09-06T06:36:04.631Z,78.77
2016-09-06T06:36:29.179Z,78.35
2016-09-06T06:36:50.927Z,78.32
2016-09-06T06:37:12.632Z,78.50
2016-09-06T06:37:34.343Z,78.53
2016-09-06T06:37:56.056Z,78.43
2016-09-06T06:38:17.771Z,78.55
2016-09-06T06:38:39.483Z,78.40
2016-09-06T06:39:01.211Z,78.50
2016-09-06T06:39:22.938Z,78.55
2016-09-06T06:39:44.661Z,78.44
2016-09-06T06:40:06.395Z,78.32
2016-09-06T06:40:28.123Z,78.33
2016-09-06T06:40:49.858Z,78.39
2016-09-06T06:41:11.582Z,78.20
2016-09-06T06:41:33.297Z,78.01
2016-09-06T06:41:55.024Z,78.21
2016-09-06T06:42:16.741Z,78.10
2016-09-06T06:42:39.480Z,78.21
2016-09-06T06:43:01.195Z,78.21
2016-09-06T06:43:22.996Z,78.07
2016-09-06T06:43:44.703Z,77.90
2016-09-06T06:44:06.424Z,77.93
2016-09-06T06:44:28.149Z,77.86
2016-09-06T06:44:49.959Z,77.98
2016-09-06T06:45:11.678Z,78.02
2016-09-06T06:45:33.403Z,78.14
2016-09-06T06:45:55.118Z,77.91
2016-09-06T06:46:16.859Z,77.89
2016-09-06T06:46:38.584Z,77.99
2016-09-06T06:47:00.302Z,77.96
2016-09-06T06:47:22.091Z,77.91
2016-09-06T06:47:43.826Z,78.10
2016-09-06T06:48:05.551Z,78.33
2016-09-06T06:48:27.276Z,78.44
2016-09-06T06:48:48.994Z,78.25
2016-09-06T06:49:10.712Z,78.42
2016-09-06T06:49:32.433Z,78.48
2016-09-06T06:49:54.174Z,78.28
2016-09-06T06:50:15.890Z,78.12
2016-09-06T06:50:37.611Z,78.11
2016-09-06T06:50:59.334Z,78.00
2016-09-06T06:51:21.059Z,77.99
2016-09-06T06:51:42.773Z,78.07
2016-09-06T06:52:04.501Z,77.92
2016-09-06T06:52:26.216Z,77.91
2016-09-06T06:52:47.957Z,78.18
2016-09-06T06:53:09.657Z,78.33
2016-09-06T06:53:31.383Z,78.36
2016-09-06T06:53:53.111Z,78.22
2016-09-06T06:54:17.711Z,78.11
2016-09-06T06:54:39.430Z,78.13
2016-09-06T06:55:01.150Z,78.01
2016-09-06T06:55:22.868Z,77.78
2016-09-06T06:55:44.593Z,77.72
2016-09-06T06:56:06.305Z,77.64
2016-09-06T06:56:28.017Z,77.70
2016-09-06T06:56:49.740Z,77.59
2016-09-06T06:57:11.445Z,77.55
2016-09-06T06:57:33.163Z,77.71
2016-09-06T06:57:54.883Z,77.64
2016-09-06T06:58:17.607Z,77.69
2016-09-06T06:58:39.327Z,77.77
2016-09-06T06:59:01.186Z,77.86
2016-09-06T06:59:22.907Z,77.69
2016-09-06T06:59:44.623Z,77.41
2016-09-06T07:00:06.348Z,77.27
2016-09-06T07:00:28.067Z,77.39
2016-09-06T07:00:49.785Z,77.45
2016-09-06T07:01:18.952Z,77.59
2016-09-06T07:01:40.619Z,77.44
2016-09-06T07:02:04.590Z,77.38
2016-09-06T07:02:28.280Z,77.09
2016-09-06T07:02:50.007Z,77.22
2016-09-06T07:03:11.720Z,77.15
2016-09-06T07:03:33.442Z,77.06
2016-09-06T07:03:55.154Z,76.94
2016-09-06T07:04:16.868Z,77.02
2016-09-06T07:04:38.613Z,77.01
2016-09-06T07:05:00.335Z,77.19
2016-09-06T07:05:22.058Z,77.35
2016-09-06T07:05:43.775Z,77.40
2016-09-06T07:06:05.582Z,77.36
2016-09-06T07:06:27.310Z,77.44
2016-09-06T07:06:49.029Z,77.27
2016-09-06T07:07:10.748Z,77.21
2016-09-06T07:07:32.469Z,76.97
2016-09-06T07:07:54.213Z,76.95
2016-09-06T07:08:15.938Z,76.71
2016-09-06T07:08:37.669Z,76.64
2016-09-06T07:08:59.397Z,76.80
2016-09-06T07:09:21.135Z,76.54
2016-09-06T07:09:45.294Z,76.44
2016-09-06T07:10:11.787Z,76.25
2016-09-06T07:10:33.512Z,76.42
2016-09-06T07:10:55.218Z,76.65
2016-09-06T07:11:16.933Z,76.67
2016-09-06T07:11:38.649Z,76.95
2016-09-06T07:12:00.393Z,76.68
2016-09-06T07:12:22.124Z,76.49
2016-09-06T07:12:43.839Z,76.75
2016-09-06T07:13:05.564Z,76.40
2016-09-06T07:13:27.278Z,76.58
2016-09-06T07:13:49.005Z,76.49
2016-09-06T07:14:10.719Z,76.57
2016-09-06T07:14:32.440Z,76.60
2016-09-06T07:14:54.159Z,76.57
2016-09-06T07:15:16.871Z,76.29
2016-09-06T07:15:38.607Z,76.38
2016-09-06T07:16:03.074Z,76.44
2016-09-06T07:16:24.802Z,76.23
2016-09-06T07:16:46.542Z,76.12
2016-09-06T07:17:08.272Z,76.08
2016-09-06T07:17:32.856Z,76.31
2016-09-06T07:17:54.585Z,76.36
2016-09-06T07:19:00.018Z,76.20
2016-09-06T07:19:52.818Z,76.19
2016-09-06T07:20:14.540Z,76.26
2016-09-06T07:20:36.264Z,76.29
2016-09-06T07:20:57.986Z,76.11
2016-09-06T07:21:19.704Z,76.00
2016-09-06T07:21:41.429Z,76.00
2016-09-06T07:22:03.150Z,75.94
2016-09-06T07:22:24.885Z,75.91
2016-09-06T07:22:46.622Z,75.80
2016-09-06T07:23:08.348Z,75.82
2016-09-06T07:23:30.086Z,75.76
2016-09-06T07:23:51.822Z,75.58
2016-09-06T07:24:13.545Z,75.40
2016-09-06T07:24:49.574Z,75.69
2016-09-06T07:25:11.414Z,75.46
2016-09-06T07:25:33.132Z,75.37
2016-09-06T07:25:59.621Z,75.34
2016-09-06T07:26:21.335Z,75.60
2016-09-06T07:26:43.078Z,75.43
2016-09-06T07:27:04.802Z,75.23
2016-09-06T07:27:29.132Z,75.30
2016-09-06T07:27:50.893Z,75.19
2016-09-06T07:28:14.126Z,75.55
2016-09-06T07:28:35.861Z,75.07
2016-09-06T07:28:58.760Z,75.29
2016-09-06T07:29:20.657Z,75.37
2016-09-06T07:29:42.605Z,75.22
2016-09-06T07:30:04.377Z,75.11
2016-09-06T07:30:26.245Z,75.09
2016-09-06T07:30:51.839Z,75.47
2016-09-06T07:31:13.850Z,75.72
2016-09-06T07:31:35.788Z,75.71
2016-09-06T07:32:00.203Z,75.79
2016-09-06T07:32:26.700Z,75.74
2016-09-06T07:32:48.440Z,75.80
2016-09-06T07:33:10.192Z,75.76
2016-09-06T07:33:31.948Z,75.75
2016-09-06T07:33:54.171Z,75.66
2016-09-06T07:34:20.802Z,75.38
2016-09-06T07:34:42.690Z,75.10
2016-09-06T07:35:09.299Z,75.06
2016-09-06T07:35:31.055Z,74.82
2016-09-06T07:35:52.802Z,75.43
2016-09-06T07:36:14.546Z,75.05
2016-09-06T07:36:36.289Z,75.17
2016-09-06T07:37:00.031Z,75.32
2016-09-06T07:37:21.786Z,75.57
2016-09-06T07:37:44.645Z,75.41
2016-09-06T07:38:06.501Z,75.54
2016-09-06T07:38:28.370Z,75.28
2016-09-06T07:38:50.283Z,75.17
2016-09-06T07:39:12.037Z,75.20
2016-09-06T07:39:33.778Z,75.24
2016-09-06T07:39:56.684Z,75.12
2016-09-06T07:40:18.431Z,75.27
2016-09-06T07:40:40.159Z,75.13
2016-09-06T07:41:01.966Z,75.60
2016-09-06T07:41:23.954Z,75.74
2016-09-06T07:41:46.363Z,75.56
2016-09-06T07:42:09.438Z,75.48
2016-09-06T07:42:31.522Z,75.39
2016-09-06T07:42:54.412Z,75.23
2016-09-06T07:43:16.543Z,75.31
2016-09-06T07:43:43.257Z,75.57
2016-09-06T07:44:05.103Z,75.27
2016-09-06T07:44:31.808Z,75.16
2016-09-06T07:44:54.690Z,75.09
2016-09-06T07:45:46.590Z,74.83
2016-09-06T07:46:08.402Z,74.76
2016-09-06T07:46:30.364Z,74.83
2016-09-06T07:46:56.955Z,75.37
2016-09-06T07:47:23.593Z,75.09
2016-09-06T07:48:13.014Z,75.50
2016-09-06T07:48:34.927Z,75.48
2016-09-06T07:49:01.445Z,75.35
2016-09-06T07:49:23.483Z,75.02
2016-09-06T07:49:46.572Z,74.80
2016-09-06T07:50:15.641Z,74.86
2016-09-06T07:50:43.371Z,74.85
2016-09-06T07:52:15.048Z,74.86
2016-09-06T07:53:05.830Z,74.51
2016-09-06T07:53:32.410Z,74.56
2016-09-06T07:53:55.282Z,74.58
2016-09-06T07:54:17.535Z,74.76
2016-09-06T07:54:48.808Z,74.85
2016-09-06T07:55:11.551Z,74.76
2016-09-06T07:55:38.255Z,74.80
2016-09-06T07:56:00.002Z,75.00
2016-09-06T07:56:21.750Z,75.04
2016-09-06T07:56:43.592Z,74.99
2016-09-06T07:57:05.570Z,75.12
2016-09-06T07:57:28.681Z,75.08
2016-09-06T07:57:50.617Z,75.29
2016-09-06T07:58:12.588Z,75.29
2016-09-06T07:58:34.433Z,75.35
2016-09-06T07:58:56.166Z,75.27
2016-09-06T07:59:18.025Z,75.38
2016-09-06T07:59:44.550Z,75.39
2016-09-06T08:00:11.237Z,74.98
2016-09-06T08:00:32.997Z,74.88
2016-09-06T08:00:54.844Z,75.11
2016-09-06T08:01:16.639Z,75.24
2016-09-06T08:01:38.370Z,75.36
2016-09-06T08:02:01.122Z,75.32
2016-09-06T08:02:22.847Z,75.17
2016-09-06T08:02:44.946Z,75.21
2016-09-06T08:03:09.583Z,75.49
2016-09-06T08:04:15.934Z,75.31
2016-09-06T08:05:22.559Z,75.28
2016-09-06T08:05:44.308Z,75.27
2016-09-06T08:06:06.092Z,75.01
2016-09-06T08:06:57.769Z,74.97
2016-09-06T08:07:19.522Z,74.86
2016-09-06T08:08:08.870Z,75.20
2016-09-06T08:08:30.796Z,75.32
2016-09-06T08:08:52.792Z,75.12
2016-09-06T08:09:15.723Z,74.87
2016-09-06T08:09:37.580Z,74.90
2016-09-06T08:09:59.503Z,74.77
2016-09-06T08:10:21.372Z,74.78
2016-09-06T08:10:43.206Z,74.86
2016-09-06T08:11:05.109Z,74.79
2016-09-06T08:11:27.013Z,74.72
2016-09-06T08:11:48.933Z,74.84
2016-09-06T08:12:10.812Z,74.79
2016-09-06T08:12:32.536Z,74.85
2016-09-06T08:12:54.354Z,74.94
2016-09-06T08:13:17.366Z,74.72
2016-09-06T08:13:41.910Z,74.44
2016-09-06T08:14:03.731Z,74.47
2016-09-06T08:14:25.711Z,74.51
2016-09-06T08:14:50.338Z,74.60
2016-09-06T08:15:12.226Z,74.56
2016-09-06T08:16:00.975Z,74.66
2016-09-06T08:16:22.876Z,74.67
2016-09-06T08:16:44.747Z,74.55
2016-09-06T08:17:06.569Z,74.31
2016-09-06T08:17:29.477Z,74.20
2016-09-06T08:17:52.233Z,74.45
2016-09-06T08:18:15.119Z,74.45
2016-09-06T08:19:04.616Z,74.23
2016-09-06T08:19:26.524Z,74.27
2016-09-06T08:19:48.377Z,74.34
2016-09-06T08:20:10.178Z,74.72
2016-09-06T08:20:36.668Z,74.49
2016-09-06T08:20:58.555Z,74.35
2016-09-06T08:21:25.084Z,74.44
2016-09-06T08:22:23.361Z,74.16
2016-09-06T08:22:46.158Z,74.20
2016-09-06T08:23:07.928Z,74.19
2016-09-06T08:23:29.721Z,74.13
2016-09-06T08:23:52.536Z,73.95
2016-09-06T08:24:14.491Z,74.14
2016-09-06T08:24:36.342Z,74.14
2016-09-06T08:24:58.155Z,73.40
2016-09-06T08:25:20.022Z,73.60
2016-09-06T08:25:41.922Z,73.30
2016-09-06T08:26:08.434Z,73.39
2016-09-06T08:26:30.178Z,73.34
2016-09-06T08:26:51.919Z,73.41
2016-09-06T08:27:13.660Z,73.54
2016-09-06T08:27:36.468Z,73.66
2016-09-06T08:27:58.446Z,73.73
2016-09-06T08:28:20.210Z,73.66
2016-09-06T08:28:42.088Z,73.78
2016-09-06T08:29:03.830Z,73.83
2016-09-06T08:29:25.669Z,73.88
2016-09-06T08:29:47.407Z,73.79
2016-09-06T08:30:09.153Z,73.81
2016-09-06T08:30:30.889Z,73.68
2016-09-06T08:30:52.668Z,73.63
2016-09-06T08:31:14.673Z,73.38
2016-09-06T08:31:36.497Z,73.11
2016-09-06T08:31:58.396Z,73.05
2016-09-06T08:32:20.191Z,73.13
2016-09-06T08:32:42.012Z,73.31
2016-09-06T08:33:03.871Z,73.51
2016-09-06T08:33:30.367Z,73.24
2016-09-06T08:33:52.193Z,73.25
2016-09-06T08:34:14.035Z,73.04
2016-09-06T08:34:35.935Z,73.30
2016-09-06T08:34:57.676Z,73.04
2016-09-06T08:35:19.490Z,73.10
2016-09-06T08:35:41.275Z,73.23
2016-09-06T08:36:03.010Z,73.19
2016-09-06T08:36:24.873Z,73.08
2016-09-06T08:36:46.630Z,73.33
2016-09-06T08:37:39.643Z,73.10
2016-09-06T08:38:01.391Z,73.30
2016-09-06T08:38:23.144Z,73.26
2016-09-06T08:38:45.890Z,73.27
2016-09-06T08:39:07.743Z,73.26
2016-09-06T08:39:29.519Z,73.13
2016-09-06T08:39:51.315Z,73.29
2016-09-06T08:40:13.113Z,73.55
2016-09-06T08:40:34.866Z,73.28
2016-09-06T08:40:56.619Z,73.23
2016-09-06T08:41:18.358Z,72.83
2016-09-06T08:41:44.984Z,72.80
2016-09-06T08:42:11.487Z,72.97
2016-09-06T08:42:33.322Z,72.70
2016-09-06T08:42:55.154Z,72.48
2016-09-06T08:43:17.900Z,72.62
2016-09-06T08:43:39.778Z,72.74
2016-09-06T08:44:01.499Z,72.94
2016-09-06T08:44:24.255Z,73.23
2016-09-06T08:44:45.992Z,72.87
2016-09-06T08:45:07.772Z,72.96
2016-09-06T08:45:30.639Z,72.78
2016-09-06T08:45:53.535Z,72.78
2016-09-06T08:46:15.276Z,72.61
2016-09-06T08:46:37.013Z,72.70
2016-09-06T08:46:58.853Z,72.71
2016-09-06T08:47:20.623Z,72.36
2016-09-06T08:47:42.361Z,71.97
2016-09-06T08:48:08.931Z,71.54
2016-09-06T08:48:30.680Z,71.49
2016-09-06T08:48:52.485Z,71.62
2016-09-06T08:49:14.227Z,71.64
2016-09-06T08:49:36.092Z,71.61
2016-09-06T08:49:57.852Z,71.36
2016-09-06T08:50:19.733Z,71.26
2016-09-06T08:50:41.567Z,70.49
2016-09-06T08:51:03.413Z,69.50
2016-09-06T08:51:25.215Z,69.42
2016-09-06T08:51:47.062Z,69.75
2016-09-06T08:52:09.093Z,69.26
2016-09-06T08:52:30.831Z,69.10
2016-09-06T08:52:55.602Z,69.55
2016-09-06T08:53:17.331Z,69.79
2016-09-06T08:53:39.075Z,69.99
2016-09-06T08:54:00.820Z,70.06
2016-09-06T08:54:22.643Z,69.49
2016-09-06T08:54:44.427Z,69.37
2016-09-06T08:55:06.387Z,69.64
2016-09-06T08:55:28.217Z,69.83
2016-09-06T08:55:49.965Z,70.41
2016-09-06T08:56:11.711Z,70.21
2016-09-06T08:56:33.451Z,70.37
2016-09-06T08:56:55.193Z,69.98
2016-09-06T08:57:16.908Z,69.92
2016-09-06T08:57:38.642Z,69.75
2016-09-06T08:58:00.383Z,69.55
2016-09-06T08:58:48.607Z,69.29
2016-09-06T08:59:10.341Z,69.60
2016-09-06T08:59:32.088Z,69.87
2016-09-06T08:59:54.057Z,69.61
2016-09-06T09:00:15.862Z,69.76
2016-09-06T09:00:37.593Z,69.92
2016-09-06T09:00:59.350Z,69.33
2016-09-06T09:01:24.088Z,69.34
2016-09-06T09:01:45.804Z,69.68
2016-09-06T09:02:07.532Z,69.74
2016-09-06T09:02:29.340Z,69.50
2016-09-06T09:02:51.185Z,69.62
2016-09-06T09:03:12.815Z,69.33
2016-09-06T09:03:34.558Z,68.77
2016-09-06T09:03:56.291Z,68.36
2016-09-06T09:04:18.038Z,68.71
2016-09-06T09:04:39.769Z,68.55
2016-09-06T09:05:01.506Z,68.35
2016-09-06T09:05:23.240Z,68.50
2016-09-06T09:05:44.978Z,68.34
2016-09-06T09:06:09.314Z,68.94
2016-09-06T09:06:32.044Z,68.90
2016-09-06T09:06:53.813Z,68.42
2016-09-06T09:07:15.564Z,68.28
2016-09-06T09:07:37.301Z,68.42
2016-09-06T09:07:59.043Z,68.82
2016-09-06T09:08:20.771Z,68.82
2016-09-06T09:08:44.926Z,68.71
2016-09-06T09:09:07.667Z,68.77
2016-09-06T09:09:29.411Z,68.33
2016-09-06T09:09:51.150Z,68.71
2016-09-06T09:10:12.902Z,68.67
2016-09-06T09:10:34.662Z,68.76
2016-09-06T09:10:56.406Z,69.24
2016-09-06T09:11:18.144Z,69.57
2016-09-06T09:11:39.878Z,69.39
2016-09-06T09:12:01.614Z,69.54
2016-09-06T09:12:23.353Z,69.74
2016-09-06T09:12:45.196Z,69.67
2016-09-06T09:13:06.924Z,69.75
2016-09-06T09:13:28.649Z,69.79
2016-09-06T09:13:50.373Z,70.31
2016-09-06T09:14:16.871Z,69.94
2016-09-06T09:14:39.612Z,69.86
2016-09-06T09:15:04.149Z,69.86
2016-09-06T09:15:25.878Z,70.06
2016-09-06T09:15:47.619Z,70.02
2016-09-06T09:16:09.358Z,69.83
2016-09-06T09:16:35.865Z,70.08
2016-09-06T09:17:00.454Z,69.96
2016-09-06T09:17:22.191Z,70.00
2016-09-06T09:17:43.923Z,69.99
2016-09-06T09:18:12.828Z,69.98
2016-09-06T09:18:32.044Z,68.70
2016-09-06T09:19:01.072Z,68.41
2016-09-06T09:19:27.487Z,68.02
2016-09-06T09:19:51.781Z,68.28
2016-09-06T09:20:20.709Z,68.26
2016-09-06T09:20:47.206Z,68.35
2016-09-06T09:21:13.704Z,68.63
2016-09-06T09:21:38.143Z,68.32
2016-09-06T09:22:01.871Z,68.58
2016-09-06T09:22:23.615Z,68.30
2016-09-06T09:22:45.362Z,67.55
2016-09-06T09:23:12.006Z,67.64
2016-09-06T09:23:36.291Z,68.20
2016-09-06T09:23:57.877Z,68.14
2016-09-06T09:24:22.492Z,67.68
2016-09-06T09:24:49.010Z,67.56
2016-09-06T09:25:13.583Z,66.50
2016-09-06T09:25:40.080Z,66.21
2016-09-06T09:26:04.607Z,66.30
2016-09-06T09:26:29.164Z,66.97
2016-09-06T09:26:53.327Z,67.70
2016-09-06T09:27:41.832Z,66.99
2016-09-06T09:28:03.558Z,67.47
2016-09-06T09:28:30.060Z,67.20
2016-09-06T09:28:52.799Z,66.65
2016-09-06T09:29:14.539Z,66.59
2016-09-06T09:29:36.268Z,66.79
2016-09-06T09:30:27.145Z,67.42
2016-09-06T09:30:53.654Z,67.89
2016-09-06T09:31:15.372Z,68.19
2016-09-06T09:31:37.113Z,67.03
2016-09-06T09:31:58.847Z,66.84
2016-09-06T09:32:48.279Z,66.81
2016-09-06T09:33:14.777Z,66.64
2016-09-06T09:33:36.513Z,66.99
2016-09-06T09:34:03.001Z,66.85
2016-09-06T09:34:25.727Z,65.87
2016-09-06T09:34:47.484Z,65.49
2016-09-06T09:35:13.986Z,65.48
2016-09-06T09:35:35.711Z,64.86
2016-09-06T09:35:57.445Z,64.14
2016-09-06T09:36:23.071Z,64.50
2016-09-06T09:36:44.813Z,65.08
2016-09-06T09:37:06.539Z,65.17
2016-09-06T09:37:28.271Z,64.95
2016-09-06T09:37:52.917Z,65.30
2016-09-06T09:38:14.646Z,64.42
2016-09-06T09:38:36.383Z,64.34
2016-09-06T09:38:58.129Z,64.59
2016-09-06T09:39:19.876Z,64.95
2016-09-06T09:39:41.608Z,64.62
2016-09-06T09:40:03.321Z,64.34
2016-09-06T09:40:25.055Z,64.43
2016-09-06T09:40:47.775Z,64.41
2016-09-06T09:41:09.525Z,64.28
2016-09-06T09:41:31.258Z,63.38
2016-09-06T09:41:53.005Z,63.03
2016-09-06T09:42:14.729Z,62.97
2016-09-06T09:42:41.225Z,63.30
2016-09-06T09:43:02.966Z,63.99
2016-09-06T09:43:24.697Z,63.65
2016-09-06T09:43:48.642Z,63.03
2016-09-06T09:44:10.378Z,63.30
2016-09-06T09:44:36.866Z,63.67
2016-09-06T09:44:58.482Z,64.13
2016-09-06T09:45:20.217Z,64.53